sensor_id;sensor_type;location;lat;lon;timestamp;temperature;humidity
24250;DHT22;12379;49.820;8.648;2023-03-24T00:02:04;14.50;99.90
24250;DHT22;12379;49.820;8.648;2023-03-24T00:04:32;14.30;99.90
24250;DHT22;12379;49.820;8.648;2023-03-24T00:06:58;14.20;99.90
24250;DHT22;12379;49.820;8.648;2023-03-24T00:09:26;14.20;99.90
24250;DHT22;12379;49.820;8.648;2023-03-24T00:11:54;14.20;99.90
24250;DHT22;12379;49.820;8.648;2023-03-24T00:14:19;14.20;99.90
24250;DHT22;12379;49.820;8.648;2023-03-24T00:16:45;14.10;99.90
24250;DHT22;12379;49.820;8.648;2023-03-24T00:19:11;14.20;99.90
24250;DHT22;12379;49.820;8.648;2023-03-24T00:21:40;14.30;99.90
24250;DHT22;12379;49.820;8.648;2023-03-24T00:24:06;14.20;99.90
24250;DHT22;12379;49.820;8.648;2023-03-24T00:26:36;14.10;99.90
24250;DHT22;12379;49.820;8.648;2023-03-24T00:29:02;14.20;99.90
24250;DHT22;12379;49.820;8.648;2023-03-24T00:31:29;14.20;99.90
24250;DHT22;12379;49.820;8.648;2023-03-24T00:33:55;14.20;99.90
24250;DHT22;12379;49.820;8.648;2023-03-24T00:36:23;14.20;99.90
24250;DHT22;12379;49.820;8.648;2023-03-24T00:38:49;14.30;99.90
24250;DHT22;12379;49.820;8.648;2023-03-24T00:41:15;14.10;99.90
24250;DHT22;12379;49.820;8.648;2023-03-24T00:43:48;14.00;99.90
24250;DHT22;12379;49.820;8.648;2023-03-24T00:46:15;14.00;99.90
24250;DHT22;12379;49.820;8.648;2023-03-24T00:49:05;14.00;99.90
24250;DHT22;12379;49.820;8.648;2023-03-24T00:51:36;14.00;99.90
24250;DHT22;12379;49.820;8.648;2023-03-24T00:54:03;13.90;99.90
24250;DHT22;12379;49.820;8.648;2023-03-24T00:56:30;13.80;99.90
24250;DHT22;12379;49.820;8.648;2023-03-24T00:58:56;13.80;99.90
24250;DHT22;12379;49.820;8.648;2023-03-24T01:01:24;13.80;99.90
24250;DHT22;12379;49.820;8.648;2023-03-24T01:03:50;13.80;99.90
24250;DHT22;12379;49.820;8.648;2023-03-24T01:06:17;13.80;99.90
24250;DHT22;12379;49.820;8.648;2023-03-24T01:08:44;13.80;99.90
24250;DHT22;12379;49.820;8.648;2023-03-24T01:11:10;13.80;99.90
24250;DHT22;12379;49.820;8.648;2023-03-24T01:13:37;14.00;99.90
24250;DHT22;12379;49.820;8.648;2023-03-24T01:16:04;13.90;99.90
24250;DHT22;12379;49.820;8.648;2023-03-24T01:18:31;14.00;99.90
24250;DHT22;12379;49.820;8.648;2023-03-24T01:20:56;14.00;99.90
24250;DHT22;12379;49.820;8.648;2023-03-24T01:23:24;14.00;99.90
24250;DHT22;12379;49.820;8.648;2023-03-24T01:25:55;13.90;99.90
24250;DHT22;12379;49.820;8.648;2023-03-24T01:28:22;14.00;99.90
24250;DHT22;12379;49.820;8.648;2023-03-24T01:30:52;14.10;99.90
24250;DHT22;12379;49.820;8.648;2023-03-24T01:33:19;14.10;99.90
24250;DHT22;12379;49.820;8.648;2023-03-24T01:35:45;14.10;99.90
24250;DHT22;12379;49.820;8.648;2023-03-24T01:38:12;14.10;99.90
24250;DHT22;12379;49.820;8.648;2023-03-24T01:40:40;14.00;99.90
24250;DHT22;12379;49.820;8.648;2023-03-24T01:43:12;14.00;99.90
24250;DHT22;12379;49.820;8.648;2023-03-24T01:48:21;13.90;99.90
24250;DHT22;12379;49.820;8.648;2023-03-24T01:51:03;13.80;99.90
24250;DHT22;12379;49.820;8.648;2023-03-24T01:53:31;13.90;99.90
24250;DHT22;12379;49.820;8.648;2023-03-24T01:55:58;14.10;99.90
24250;DHT22;12379;49.820;8.648;2023-03-24T01:58:27;14.00;99.90
24250;DHT22;12379;49.820;8.648;2023-03-24T02:00:54;14.10;99.90
24250;DHT22;12379;49.820;8.648;2023-03-24T02:03:21;14.20;99.90
24250;DHT22;12379;49.820;8.648;2023-03-24T02:05:50;14.30;99.90
24250;DHT22;12379;49.820;8.648;2023-03-24T02:08:37;14.30;99.90
24250;DHT22;12379;49.820;8.648;2023-03-24T02:11:03;14.40;99.90
24250;DHT22;12379;49.820;8.648;2023-03-24T02:13:29;14.40;99.90
24250;DHT22;12379;49.820;8.648;2023-03-24T02:27:23;14.50;99.90
24250;DHT22;12379;49.820;8.648;2023-03-24T02:38:52;14.50;99.90
24250;DHT22;12379;49.820;8.648;2023-03-24T02:44:14;14.60;99.90
24250;DHT22;12379;49.820;8.648;2023-03-24T02:47:06;14.70;99.90
24250;DHT22;12379;49.820;8.648;2023-03-24T02:52:25;14.70;99.90
24250;DHT22;12379;49.820;8.648;2023-03-24T02:55:06;14.80;99.90
24250;DHT22;12379;49.820;8.648;2023-03-24T02:57:56;14.90;99.90
24250;DHT22;12379;49.820;8.648;2023-03-24T03:00:36;14.90;99.90
24250;DHT22;12379;49.820;8.648;2023-03-24T03:03:29;15.00;99.90
24250;DHT22;12379;49.820;8.648;2023-03-24T03:05:56;15.10;99.90
24250;DHT22;12379;49.820;8.648;2023-03-24T03:08:28;15.30;99.90
24250;DHT22;12379;49.820;8.648;2023-03-24T03:10:58;15.30;99.90
24250;DHT22;12379;49.820;8.648;2023-03-24T03:13:36;15.30;99.90
24250;DHT22;12379;49.820;8.648;2023-03-24T03:16:33;15.40;99.90
24250;DHT22;12379;49.820;8.648;2023-03-24T03:19:18;15.40;99.90
24250;DHT22;12379;49.820;8.648;2023-03-24T03:21:46;15.40;99.90
24250;DHT22;12379;49.820;8.648;2023-03-24T03:24:23;15.50;99.90
24250;DHT22;12379;49.820;8.648;2023-03-24T03:26:54;15.50;99.90
24250;DHT22;12379;49.820;8.648;2023-03-24T03:29:23;15.50;99.90
24250;DHT22;12379;49.820;8.648;2023-03-24T03:31:56;15.50;99.90
24250;DHT22;12379;49.820;8.648;2023-03-24T03:40:01;15.50;99.90
24250;DHT22;12379;49.820;8.648;2023-03-24T03:42:30;15.50;99.90
24250;DHT22;12379;49.820;8.648;2023-03-24T03:44:56;15.50;99.90
24250;DHT22;12379;49.820;8.648;2023-03-24T03:47:22;15.40;99.90
24250;DHT22;12379;49.820;8.648;2023-03-24T03:49:48;15.30;99.90
24250;DHT22;12379;49.820;8.648;2023-03-24T03:52:15;15.30;99.90
24250;DHT22;12379;49.820;8.648;2023-03-24T03:54:41;15.20;99.90
24250;DHT22;12379;49.820;8.648;2023-03-24T03:57:09;15.10;99.90
24250;DHT22;12379;49.820;8.648;2023-03-24T03:59:37;15.10;99.90
24250;DHT22;12379;49.820;8.648;2023-03-24T04:07:31;14.90;99.90
24250;DHT22;12379;49.820;8.648;2023-03-24T04:10:17;14.90;99.90
24250;DHT22;12379;49.820;8.648;2023-03-24T04:13:00;14.70;99.90
24250;DHT22;12379;49.820;8.648;2023-03-24T04:21:15;14.80;99.90
24250;DHT22;12379;49.820;8.648;2023-03-24T04:26:35;14.80;99.90
24250;DHT22;12379;49.820;8.648;2023-03-24T04:31:59;14.90;99.90
24250;DHT22;12379;49.820;8.648;2023-03-24T04:34:37;14.90;99.90
24250;DHT22;12379;49.820;8.648;2023-03-24T04:37:17;14.80;99.90
24250;DHT22;12379;49.820;8.648;2023-03-24T04:39:45;14.80;99.90
24250;DHT22;12379;49.820;8.648;2023-03-24T04:42:22;14.70;99.90
24250;DHT22;12379;49.820;8.648;2023-03-24T04:44:50;14.80;99.90
24250;DHT22;12379;49.820;8.648;2023-03-24T04:47:18;14.70;99.90
24250;DHT22;12379;49.820;8.648;2023-03-24T04:49:44;14.60;99.90
24250;DHT22;12379;49.820;8.648;2023-03-24T04:52:10;14.70;99.90
24250;DHT22;12379;49.820;8.648;2023-03-24T04:54:35;14.60;99.90
24250;DHT22;12379;49.820;8.648;2023-03-24T04:57:01;14.60;99.90
24250;DHT22;12379;49.820;8.648;2023-03-24T04:59:28;14.70;99.90
24250;DHT22;12379;49.820;8.648;2023-03-24T05:01:54;14.60;99.90
24250;DHT22;12379;49.820;8.648;2023-03-24T05:04:25;14.40;99.90
24250;DHT22;12379;49.820;8.648;2023-03-24T05:06:53;14.40;99.90
24250;DHT22;12379;49.820;8.648;2023-03-24T05:09:20;14.20;99.90
24250;DHT22;12379;49.820;8.648;2023-03-24T05:11:46;14.20;99.90
24250;DHT22;12379;49.820;8.648;2023-03-24T05:14:13;14.10;99.90
24250;DHT22;12379;49.820;8.648;2023-03-24T05:16:39;13.90;99.90
24250;DHT22;12379;49.820;8.648;2023-03-24T05:19:04;13.70;99.90
24250;DHT22;12379;49.820;8.648;2023-03-24T05:21:31;13.70;99.90
24250;DHT22;12379;49.820;8.648;2023-03-24T05:23:57;13.60;99.90
24250;DHT22;12379;49.820;8.648;2023-03-24T05:26:23;13.50;99.90
24250;DHT22;12379;49.820;8.648;2023-03-24T05:28:51;13.40;99.90
24250;DHT22;12379;49.820;8.648;2023-03-24T05:31:17;13.30;99.90
24250;DHT22;12379;49.820;8.648;2023-03-24T05:33:42;13.20;99.90
24250;DHT22;12379;49.820;8.648;2023-03-24T05:36:08;13.20;99.90
24250;DHT22;12379;49.820;8.648;2023-03-24T05:38:34;13.10;99.90
24250;DHT22;12379;49.820;8.648;2023-03-24T05:41:00;13.20;99.90
24250;DHT22;12379;49.820;8.648;2023-03-24T05:43:26;13.10;99.90
24250;DHT22;12379;49.820;8.648;2023-03-24T05:45:52;13.20;99.90
24250;DHT22;12379;49.820;8.648;2023-03-24T05:48:18;13.00;99.90
24250;DHT22;12379;49.820;8.648;2023-03-24T05:50:44;12.90;99.90
24250;DHT22;12379;49.820;8.648;2023-03-24T05:53:10;12.90;99.90
24250;DHT22;12379;49.820;8.648;2023-03-24T05:55:35;12.80;99.90
24250;DHT22;12379;49.820;8.648;2023-03-24T05:58:02;12.80;99.90
24250;DHT22;12379;49.820;8.648;2023-03-24T06:00:28;12.80;99.90
24250;DHT22;12379;49.820;8.648;2023-03-24T06:02:55;12.80;99.90
24250;DHT22;12379;49.820;8.648;2023-03-24T06:05:21;12.90;99.90
24250;DHT22;12379;49.820;8.648;2023-03-24T06:07:46;13.00;99.90
24250;DHT22;12379;49.820;8.648;2023-03-24T06:10:12;13.10;99.90
24250;DHT22;12379;49.820;8.648;2023-03-24T06:12:43;13.10;99.90
24250;DHT22;12379;49.820;8.648;2023-03-24T06:15:10;13.10;99.90
24250;DHT22;12379;49.820;8.648;2023-03-24T06:17:36;13.10;99.90
24250;DHT22;12379;49.820;8.648;2023-03-24T06:20:03;13.20;99.90
24250;DHT22;12379;49.820;8.648;2023-03-24T06:22:32;13.20;99.90
24250;DHT22;12379;49.820;8.648;2023-03-24T06:24:58;13.40;99.90
24250;DHT22;12379;49.820;8.648;2023-03-24T06:27:25;13.40;99.90
24250;DHT22;12379;49.820;8.648;2023-03-24T06:29:55;13.50;99.90
24250;DHT22;12379;49.820;8.648;2023-03-24T06:32:21;13.60;99.90
24250;DHT22;12379;49.820;8.648;2023-03-24T06:34:46;13.80;99.90
24250;DHT22;12379;49.820;8.648;2023-03-24T06:37:12;13.80;99.90
24250;DHT22;12379;49.820;8.648;2023-03-24T06:39:38;13.70;99.90
24250;DHT22;12379;49.820;8.648;2023-03-24T06:42:03;13.80;99.90
24250;DHT22;12379;49.820;8.648;2023-03-24T06:44:29;13.80;99.90
24250;DHT22;12379;49.820;8.648;2023-03-24T06:46:55;13.80;99.90
24250;DHT22;12379;49.820;8.648;2023-03-24T06:49:21;13.80;99.90
24250;DHT22;12379;49.820;8.648;2023-03-24T06:51:46;13.90;99.90
24250;DHT22;12379;49.820;8.648;2023-03-24T06:54:12;13.90;99.90
24250;DHT22;12379;49.820;8.648;2023-03-24T06:56:38;14.00;99.90
24250;DHT22;12379;49.820;8.648;2023-03-24T06:59:03;14.00;99.90
24250;DHT22;12379;49.820;8.648;2023-03-24T07:01:29;14.10;99.90
24250;DHT22;12379;49.820;8.648;2023-03-24T07:03:55;14.20;99.90
24250;DHT22;12379;49.820;8.648;2023-03-24T07:06:21;14.30;99.90
24250;DHT22;12379;49.820;8.648;2023-03-24T07:08:47;14.30;99.90
24250;DHT22;12379;49.820;8.648;2023-03-24T07:11:14;14.20;99.90
24250;DHT22;12379;49.820;8.648;2023-03-24T07:13:40;14.20;99.90
24250;DHT22;12379;49.820;8.648;2023-03-24T07:16:06;14.00;99.90
24250;DHT22;12379;49.820;8.648;2023-03-24T07:18:31;14.10;99.90
24250;DHT22;12379;49.820;8.648;2023-03-24T07:20:57;14.10;99.90
24250;DHT22;12379;49.820;8.648;2023-03-24T07:23:22;14.20;99.90
24250;DHT22;12379;49.820;8.648;2023-03-24T07:25:50;14.30;99.90
24250;DHT22;12379;49.820;8.648;2023-03-24T07:28:15;14.20;99.90
24250;DHT22;12379;49.820;8.648;2023-03-24T07:30:41;14.00;99.90
24250;DHT22;12379;49.820;8.648;2023-03-24T07:33:07;14.10;99.90
24250;DHT22;12379;49.820;8.648;2023-03-24T07:35:35;14.00;99.90
24250;DHT22;12379;49.820;8.648;2023-03-24T07:38:01;14.00;99.90
24250;DHT22;12379;49.820;8.648;2023-03-24T07:40:27;14.00;99.90
24250;DHT22;12379;49.820;8.648;2023-03-24T07:42:54;13.80;99.90
24250;DHT22;12379;49.820;8.648;2023-03-24T07:45:20;13.70;99.90
24250;DHT22;12379;49.820;8.648;2023-03-24T07:47:46;13.80;99.90
24250;DHT22;12379;49.820;8.648;2023-03-24T07:50:13;13.90;99.90
24250;DHT22;12379;49.820;8.648;2023-03-24T07:52:40;13.70;99.90
24250;DHT22;12379;49.820;8.648;2023-03-24T07:55:07;13.70;99.90
24250;DHT22;12379;49.820;8.648;2023-03-24T07:57:36;13.80;99.90
24250;DHT22;12379;49.820;8.648;2023-03-24T08:00:07;13.80;99.90
24250;DHT22;12379;49.820;8.648;2023-03-24T08:02:39;13.80;99.90
24250;DHT22;12379;49.820;8.648;2023-03-24T08:05:06;13.80;99.90
24250;DHT22;12379;49.820;8.648;2023-03-24T08:07:32;13.90;99.90
24250;DHT22;12379;49.820;8.648;2023-03-24T08:09:58;14.00;99.90
24250;DHT22;12379;49.820;8.648;2023-03-24T08:12:27;14.00;99.90
24250;DHT22;12379;49.820;8.648;2023-03-24T08:14:53;14.10;99.90
24250;DHT22;12379;49.820;8.648;2023-03-24T08:17:18;14.00;99.90
24250;DHT22;12379;49.820;8.648;2023-03-24T08:19:44;14.00;99.90
24250;DHT22;12379;49.820;8.648;2023-03-24T08:22:11;14.00;99.90
24250;DHT22;12379;49.820;8.648;2023-03-24T08:24:37;14.00;99.90
24250;DHT22;12379;49.820;8.648;2023-03-24T08:27:05;13.90;99.90
24250;DHT22;12379;49.820;8.648;2023-03-24T08:29:35;13.90;99.90
24250;DHT22;12379;49.820;8.648;2023-03-24T08:32:00;13.80;99.90
24250;DHT22;12379;49.820;8.648;2023-03-24T08:34:26;13.70;99.90
24250;DHT22;12379;49.820;8.648;2023-03-24T08:36:52;13.70;99.90
24250;DHT22;12379;49.820;8.648;2023-03-24T08:39:18;13.60;99.90
24250;DHT22;12379;49.820;8.648;2023-03-24T08:41:45;13.50;99.90
24250;DHT22;12379;49.820;8.648;2023-03-24T08:44:10;13.50;99.90
24250;DHT22;12379;49.820;8.648;2023-03-24T08:46:36;13.40;99.90
24250;DHT22;12379;49.820;8.648;2023-03-24T08:49:03;13.40;99.90
24250;DHT22;12379;49.820;8.648;2023-03-24T08:51:29;13.50;99.90
24250;DHT22;12379;49.820;8.648;2023-03-24T08:53:54;13.50;99.90
24250;DHT22;12379;49.820;8.648;2023-03-24T08:56:20;13.60;99.90
24250;DHT22;12379;49.820;8.648;2023-03-24T08:58:47;13.50;99.90
24250;DHT22;12379;49.820;8.648;2023-03-24T09:01:13;13.50;99.90
24250;DHT22;12379;49.820;8.648;2023-03-24T09:03:39;13.60;99.90
24250;DHT22;12379;49.820;8.648;2023-03-24T09:06:05;13.80;99.90
24250;DHT22;12379;49.820;8.648;2023-03-24T09:08:31;13.80;99.90
24250;DHT22;12379;49.820;8.648;2023-03-24T09:10:58;13.80;99.90
24250;DHT22;12379;49.820;8.648;2023-03-24T09:13:24;13.70;99.90
24250;DHT22;12379;49.820;8.648;2023-03-24T09:15:51;13.70;99.90
24250;DHT22;12379;49.820;8.648;2023-03-24T09:18:18;13.70;99.90
24250;DHT22;12379;49.820;8.648;2023-03-24T09:20:46;13.60;99.90
24250;DHT22;12379;49.820;8.648;2023-03-24T09:23:13;13.50;99.90
24250;DHT22;12379;49.820;8.648;2023-03-24T09:25:39;13.60;99.90
24250;DHT22;12379;49.820;8.648;2023-03-24T09:28:05;13.60;99.90
24250;DHT22;12379;49.820;8.648;2023-03-24T09:30:32;13.50;99.90
24250;DHT22;12379;49.820;8.648;2023-03-24T09:32:58;13.50;99.90
24250;DHT22;12379;49.820;8.648;2023-03-24T09:35:25;13.60;99.90
24250;DHT22;12379;49.820;8.648;2023-03-24T09:37:52;13.60;99.90
24250;DHT22;12379;49.820;8.648;2023-03-24T09:40:26;13.50;99.90
24250;DHT22;12379;49.820;8.648;2023-03-24T09:42:56;13.40;99.90
24250;DHT22;12379;49.820;8.648;2023-03-24T09:45:26;13.20;99.90
24250;DHT22;12379;49.820;8.648;2023-03-24T09:48:12;13.20;99.90
24250;DHT22;12379;49.820;8.648;2023-03-24T09:50:52;13.10;99.90
24250;DHT22;12379;49.820;8.648;2023-03-24T09:55:47;13.10;99.90
24250;DHT22;12379;49.820;8.648;2023-03-24T09:58:13;13.10;99.90
24250;DHT22;12379;49.820;8.648;2023-03-24T10:00:39;13.10;99.90
24250;DHT22;12379;49.820;8.648;2023-03-24T10:03:19;13.10;99.90
24250;DHT22;12379;49.820;8.648;2023-03-24T10:05:59;13.00;99.90
24250;DHT22;12379;49.820;8.648;2023-03-24T10:08:34;13.00;99.90
24250;DHT22;12379;49.820;8.648;2023-03-24T10:11:26;13.00;99.90
24250;DHT22;12379;49.820;8.648;2023-03-24T10:14:26;13.20;99.90
24250;DHT22;12379;49.820;8.648;2023-03-24T10:17:01;13.40;99.90
24250;DHT22;12379;49.820;8.648;2023-03-24T10:19:56;13.60;99.90
24250;DHT22;12379;49.820;8.648;2023-03-24T10:25:22;13.60;99.90
24250;DHT22;12379;49.820;8.648;2023-03-24T10:27:56;13.40;99.90
24250;DHT22;12379;49.820;8.648;2023-03-24T10:30:27;13.00;99.90
24250;DHT22;12379;49.820;8.648;2023-03-24T10:32:53;12.40;99.90
24250;DHT22;12379;49.820;8.648;2023-03-24T10:35:35;11.80;99.90
24250;DHT22;12379;49.820;8.648;2023-03-24T10:38:10;11.60;99.90
24250;DHT22;12379;49.820;8.648;2023-03-24T10:40:39;11.70;99.90
24250;DHT22;12379;49.820;8.648;2023-03-24T10:43:06;11.70;99.90
24250;DHT22;12379;49.820;8.648;2023-03-24T10:45:32;11.80;99.90
24250;DHT22;12379;49.820;8.648;2023-03-24T10:48:00;11.90;99.90
24250;DHT22;12379;49.820;8.648;2023-03-24T10:50:31;11.90;99.90
24250;DHT22;12379;49.820;8.648;2023-03-24T10:52:58;11.90;99.90
24250;DHT22;12379;49.820;8.648;2023-03-24T10:55:35;12.00;99.90
24250;DHT22;12379;49.820;8.648;2023-03-24T10:58:09;12.20;99.90
24250;DHT22;12379;49.820;8.648;2023-03-24T11:00:43;12.40;99.90
24250;DHT22;12379;49.820;8.648;2023-03-24T11:03:15;12.40;99.90
24250;DHT22;12379;49.820;8.648;2023-03-24T11:05:43;12.60;99.90
24250;DHT22;12379;49.820;8.648;2023-03-24T11:08:26;12.60;99.90
24250;DHT22;12379;49.820;8.648;2023-03-24T11:10:53;12.60;99.90
24250;DHT22;12379;49.820;8.648;2023-03-24T11:16:11;12.60;99.90
24250;DHT22;12379;49.820;8.648;2023-03-24T11:19:03;12.50;99.90
24250;DHT22;12379;49.820;8.648;2023-03-24T11:21:31;12.50;99.90
24250;DHT22;12379;49.820;8.648;2023-03-24T11:24:08;12.50;99.90
24250;DHT22;12379;49.820;8.648;2023-03-24T11:26:36;12.50;99.90
24250;DHT22;12379;49.820;8.648;2023-03-24T11:29:05;12.80;99.90
24250;DHT22;12379;49.820;8.648;2023-03-24T11:31:36;13.00;99.90
24250;DHT22;12379;49.820;8.648;2023-03-24T11:34:22;13.00;99.90
24250;DHT22;12379;49.820;8.648;2023-03-24T11:36:54;13.10;99.90
24250;DHT22;12379;49.820;8.648;2023-03-24T11:39:31;13.40;99.90
24250;DHT22;12379;49.820;8.648;2023-03-24T11:42:13;13.50;99.90
24250;DHT22;12379;49.820;8.648;2023-03-24T11:44:42;13.50;99.90
24250;DHT22;12379;49.820;8.648;2023-03-24T11:47:30;13.50;99.90
24250;DHT22;12379;49.820;8.648;2023-03-24T11:56:30;13.50;99.90
24250;DHT22;12379;49.820;8.648;2023-03-24T11:58:30;13.50;99.90
24250;DHT22;12379;49.820;8.648;2023-03-24T12:01:12;13.60;99.90
24250;DHT22;12379;49.820;8.648;2023-03-24T12:03:56;13.80;99.90
24250;DHT22;12379;49.820;8.648;2023-03-24T12:06:29;14.00;99.90
24250;DHT22;12379;49.820;8.648;2023-03-24T12:14:21;14.20;99.90
24250;DHT22;12379;49.820;8.648;2023-03-24T12:16:56;14.20;99.90
24250;DHT22;12379;49.820;8.648;2023-03-24T12:19:36;14.40;99.90
24250;DHT22;12379;49.820;8.648;2023-03-24T12:22:42;14.20;99.90
24250;DHT22;12379;49.820;8.648;2023-03-24T12:25:37;14.30;99.90
24250;DHT22;12379;49.820;8.648;2023-03-24T12:30:59;14.40;99.90
24250;DHT22;12379;49.820;8.648;2023-03-24T12:36:21;14.70;99.90
24250;DHT22;12379;49.820;8.648;2023-03-24T12:39:14;14.40;99.90
24250;DHT22;12379;49.820;8.648;2023-03-24T12:41:50;14.50;99.90
24250;DHT22;12379;49.820;8.648;2023-03-24T12:56:04;15.30;99.90
24250;DHT22;12379;49.820;8.648;2023-03-24T13:01:24;16.00;99.90
24250;DHT22;12379;49.820;8.648;2023-03-24T13:04:10;16.30;99.90
24250;DHT22;12379;49.820;8.648;2023-03-24T13:09:41;16.10;99.90
24250;DHT22;12379;49.820;8.648;2023-03-24T13:12:16;15.90;99.90
24250;DHT22;12379;49.820;8.648;2023-03-24T13:20:28;15.80;99.90
24250;DHT22;12379;49.820;8.648;2023-03-24T13:22:58;15.70;99.90
24250;DHT22;12379;49.820;8.648;2023-03-24T13:25:54;15.60;99.90
24250;DHT22;12379;49.820;8.648;2023-03-24T13:28:27;15.50;99.90
24250;DHT22;12379;49.820;8.648;2023-03-24T13:30:54;15.50;99.90
24250;DHT22;12379;49.820;8.648;2023-03-24T13:33:31;15.80;99.90
24250;DHT22;12379;49.820;8.648;2023-03-24T13:38:52;16.40;99.90
24250;DHT22;12379;49.820;8.648;2023-03-24T13:41:23;16.50;99.90
24250;DHT22;12379;49.820;8.648;2023-03-24T13:44:01;16.30;99.90
24250;DHT22;12379;49.820;8.648;2023-03-24T13:46:28;16.50;99.90
24250;DHT22;12379;49.820;8.648;2023-03-24T13:48:56;16.60;99.90
24250;DHT22;12379;49.820;8.648;2023-03-24T13:54:16;16.50;99.90
24250;DHT22;12379;49.820;8.648;2023-03-24T13:57:05;16.70;99.90
24250;DHT22;12379;49.820;8.648;2023-03-24T14:00:03;17.10;99.90
24250;DHT22;12379;49.820;8.648;2023-03-24T14:02:54;17.30;99.80
24250;DHT22;12379;49.820;8.648;2023-03-24T14:10:37;16.80;99.90
24250;DHT22;12379;49.820;8.648;2023-03-24T14:15:49;17.20;99.90
24250;DHT22;12379;49.820;8.648;2023-03-24T14:28:48;16.60;96.80
24250;DHT22;12379;49.820;8.648;2023-03-24T14:31:17;16.90;97.00
24250;DHT22;12379;49.820;8.648;2023-03-24T14:36:29;16.90;97.60
24250;DHT22;12379;49.820;8.648;2023-03-24T14:41:41;17.20;98.30
24250;DHT22;12379;49.820;8.648;2023-03-24T14:44:09;17.40;97.60
24250;DHT22;12379;49.820;8.648;2023-03-24T14:46:40;17.10;96.70
24250;DHT22;12379;49.820;8.648;2023-03-24T14:49:18;16.70;97.60
24250;DHT22;12379;49.820;8.648;2023-03-24T14:54:40;16.50;97.40
24250;DHT22;12379;49.820;8.648;2023-03-24T14:57:33;16.50;98.60
24250;DHT22;12379;49.820;8.648;2023-03-24T15:02:54;16.50;98.90
24250;DHT22;12379;49.820;8.648;2023-03-24T15:08:10;16.70;97.70
24250;DHT22;12379;49.820;8.648;2023-03-24T15:10:49;16.60;97.60
24250;DHT22;12379;49.820;8.648;2023-03-24T15:16:06;16.80;97.50
24250;DHT22;12379;49.820;8.648;2023-03-24T15:21:35;16.70;95.30
24250;DHT22;12379;49.820;8.648;2023-03-24T15:24:22;16.70;95.20
24250;DHT22;12379;49.820;8.648;2023-03-24T15:26:51;16.90;95.00
24250;DHT22;12379;49.820;8.648;2023-03-24T15:29:17;16.90;93.90
24250;DHT22;12379;49.820;8.648;2023-03-24T15:31:42;16.80;93.40
24250;DHT22;12379;49.820;8.648;2023-03-24T15:37:03;17.10;92.60
24250;DHT22;12379;49.820;8.648;2023-03-24T15:39:38;17.50;91.70
24250;DHT22;12379;49.820;8.648;2023-03-24T15:42:14;17.50;90.60
24250;DHT22;12379;49.820;8.648;2023-03-24T15:44:41;17.60;90.90
24250;DHT22;12379;49.820;8.648;2023-03-24T15:47:22;17.70;90.30
24250;DHT22;12379;49.820;8.648;2023-03-24T15:49:59;17.20;89.40
24250;DHT22;12379;49.820;8.648;2023-03-24T15:52:34;16.70;90.20
24250;DHT22;12379;49.820;8.648;2023-03-24T15:55:22;16.70;90.70
24250;DHT22;12379;49.820;8.648;2023-03-24T15:57:48;16.80;90.30
24250;DHT22;12379;49.820;8.648;2023-03-24T16:00:16;16.80;90.20
24250;DHT22;12379;49.820;8.648;2023-03-24T16:02:52;16.70;90.90
24250;DHT22;12379;49.820;8.648;2023-03-24T16:05:28;16.50;91.60
24250;DHT22;12379;49.820;8.648;2023-03-24T16:11:06;16.30;92.00
24250;DHT22;12379;49.820;8.648;2023-03-24T16:13:36;16.30;91.90
24250;DHT22;12379;49.820;8.648;2023-03-24T16:18:42;16.30;90.90
24250;DHT22;12379;49.820;8.648;2023-03-24T16:21:28;16.30;90.30
24250;DHT22;12379;49.820;8.648;2023-03-24T16:23:56;16.30;90.80
24250;DHT22;12379;49.820;8.648;2023-03-24T16:26:26;16.10;90.80
24250;DHT22;12379;49.820;8.648;2023-03-24T16:28:53;16.10;91.50
24250;DHT22;12379;49.820;8.648;2023-03-24T16:31:32;16.20;91.50
24250;DHT22;12379;49.820;8.648;2023-03-24T16:33:59;16.20;91.50
24250;DHT22;12379;49.820;8.648;2023-03-24T16:36:26;16.00;91.60
24250;DHT22;12379;49.820;8.648;2023-03-24T16:38:53;15.90;92.10
24250;DHT22;12379;49.820;8.648;2023-03-24T16:41:18;15.80;92.00
24250;DHT22;12379;49.820;8.648;2023-03-24T16:43:45;15.80;92.60
24250;DHT22;12379;49.820;8.648;2023-03-24T16:46:15;15.70;92.80
24250;DHT22;12379;49.820;8.648;2023-03-24T16:48:41;15.70;92.40
24250;DHT22;12379;49.820;8.648;2023-03-24T16:51:15;15.50;92.90
24250;DHT22;12379;49.820;8.648;2023-03-24T16:53:42;15.40;93.10
24250;DHT22;12379;49.820;8.648;2023-03-24T16:56:09;15.30;93.00
24250;DHT22;12379;49.820;8.648;2023-03-24T16:58:36;15.10;92.80
24250;DHT22;12379;49.820;8.648;2023-03-24T17:01:02;15.10;93.20
24250;DHT22;12379;49.820;8.648;2023-03-24T17:03:28;15.00;93.30
24250;DHT22;12379;49.820;8.648;2023-03-24T17:05:55;15.00;93.10
24250;DHT22;12379;49.820;8.648;2023-03-24T17:08:22;15.00;93.40
24250;DHT22;12379;49.820;8.648;2023-03-24T17:10:49;14.90;93.70
24250;DHT22;12379;49.820;8.648;2023-03-24T17:13:23;14.80;93.70
24250;DHT22;12379;49.820;8.648;2023-03-24T17:15:53;14.80;94.10
24250;DHT22;12379;49.820;8.648;2023-03-24T17:18:19;14.70;94.60
24250;DHT22;12379;49.820;8.648;2023-03-24T17:20:45;14.70;95.20
24250;DHT22;12379;49.820;8.648;2023-03-24T17:23:13;14.60;95.10
24250;DHT22;12379;49.820;8.648;2023-03-24T17:25:40;14.50;94.90
24250;DHT22;12379;49.820;8.648;2023-03-24T17:28:15;14.50;95.30
24250;DHT22;12379;49.820;8.648;2023-03-24T17:30:41;14.50;95.30
24250;DHT22;12379;49.820;8.648;2023-03-24T17:33:11;14.50;95.50
24250;DHT22;12379;49.820;8.648;2023-03-24T17:35:36;14.50;95.60
24250;DHT22;12379;49.820;8.648;2023-03-24T17:38:02;14.50;95.40
24250;DHT22;12379;49.820;8.648;2023-03-24T17:40:28;14.50;95.50
24250;DHT22;12379;49.820;8.648;2023-03-24T17:42:53;14.50;95.60
24250;DHT22;12379;49.820;8.648;2023-03-24T17:45:19;14.40;95.50
24250;DHT22;12379;49.820;8.648;2023-03-24T17:47:45;14.30;95.70
24250;DHT22;12379;49.820;8.648;2023-03-24T17:50:11;14.20;96.40
24250;DHT22;12379;49.820;8.648;2023-03-24T17:52:45;14.10;96.50
24250;DHT22;12379;49.820;8.648;2023-03-24T17:55:12;14.10;96.90
24250;DHT22;12379;49.820;8.648;2023-03-24T17:57:38;14.00;97.10
24250;DHT22;12379;49.820;8.648;2023-03-24T18:00:05;13.90;97.60
24250;DHT22;12379;49.820;8.648;2023-03-24T18:02:32;13.90;98.10
24250;DHT22;12379;49.820;8.648;2023-03-24T18:04:58;13.70;98.20
24250;DHT22;12379;49.820;8.648;2023-03-24T18:07:24;13.70;98.30
24250;DHT22;12379;49.820;8.648;2023-03-24T18:09:49;13.70;98.10
24250;DHT22;12379;49.820;8.648;2023-03-24T18:12:16;13.70;97.40
24250;DHT22;12379;49.820;8.648;2023-03-24T18:14:43;13.70;97.10
24250;DHT22;12379;49.820;8.648;2023-03-24T18:17:09;13.70;96.50
24250;DHT22;12379;49.820;8.648;2023-03-24T18:19:35;13.90;95.80
24250;DHT22;12379;49.820;8.648;2023-03-24T18:22:02;13.80;95.70